createdAt,value
2018-06-19T00:00:53.796Z,6.50
2018-06-19T00:03:22.415Z,5.20
2018-06-19T00:05:51.022Z,6.17
2018-06-19T00:08:19.729Z,5.90
2018-06-19T00:10:48.436Z,6.40
2018-06-19T00:13:17.104Z,5.73
2018-06-19T00:15:45.864Z,5.50
2018-06-19T00:18:19.285Z,5.80
2018-06-19T00:20:48.022Z,5.50
2018-06-19T00:23:16.704Z,6.30
2018-06-19T00:25:45.465Z,7.00
2018-06-19T00:28:14.176Z,6.23
2018-06-19T00:30:42.725Z,6.30
2018-06-19T00:33:11.355Z,6.70
2018-06-19T00:35:39.968Z,6.33
2018-06-19T00:38:08.720Z,6.27
2018-06-19T00:40:37.274Z,6.10
2018-06-19T00:43:06.132Z,6.60
2018-06-19T00:45:34.851Z,7.30
2018-06-19T00:48:03.928Z,6.30
2018-06-19T00:50:32.557Z,6.20
2018-06-19T00:53:01.223Z,6.20
2018-06-19T00:55:29.722Z,6.50
2018-06-19T00:57:58.366Z,5.70
2018-06-19T01:00:27.000Z,6.30
2018-06-19T01:02:55.703Z,6.50
2018-06-19T01:05:24.382Z,6.63
2018-06-19T01:07:52.915Z,5.93
2018-06-19T01:10:21.731Z,7.63
2018-06-19T01:12:50.357Z,7.40
2018-06-19T01:15:18.979Z,8.00
2018-06-19T01:17:47.542Z,6.80
2018-06-19T01:20:16.279Z,7.60
2018-06-19T01:22:45.046Z,5.70
2018-06-19T01:25:13.835Z,5.80
2018-06-19T01:27:42.595Z,7.90
2018-06-19T01:30:11.348Z,6.97
2018-06-19T01:35:08.022Z,7.10
2018-06-19T01:37:36.451Z,6.90
2018-06-19T01:40:05.116Z,7.10
2018-06-19T01:42:33.647Z,7.20
2018-06-19T01:45:02.401Z,6.00
2018-06-19T01:49:58.757Z,6.80
2018-06-19T01:52:27.393Z,7.00
2018-06-19T01:54:56.178Z,6.65
2018-06-19T01:57:24.475Z,7.17
2018-06-19T01:59:53.207Z,6.30
2018-06-19T02:02:21.865Z,7.05
2018-06-19T02:04:50.585Z,6.80
2018-06-19T02:07:19.455Z,7.00
2018-06-19T02:09:48.497Z,7.80
2018-06-19T02:14:45.619Z,7.25
2018-06-19T02:17:14.425Z,8.97
2018-06-19T02:19:43.061Z,9.00
2018-06-19T02:22:12.271Z,7.27
2018-06-19T02:24:40.481Z,8.30
2018-06-19T02:27:09.419Z,9.90
2018-06-19T02:29:38.367Z,9.40
2018-06-19T02:32:07.154Z,8.00
2018-06-19T02:34:36.112Z,8.93
2018-06-19T02:37:04.838Z,9.53
2018-06-19T02:39:33.924Z,8.90
2018-06-19T02:42:02.749Z,7.70
2018-06-19T02:44:31.541Z,7.40
2018-06-19T02:47:00.348Z,8.93
2018-06-19T02:49:29.132Z,8.37
2018-06-19T02:51:57.999Z,7.77
2018-06-19T02:54:26.598Z,10.93
2018-06-19T02:56:55.392Z,9.00
2018-06-19T02:59:24.517Z,8.00
2018-06-19T03:01:53.113Z,9.00
2018-06-19T03:04:21.953Z,8.50
2018-06-19T03:06:50.766Z,8.13
2018-06-19T03:09:19.355Z,9.10
2018-06-19T03:11:48.419Z,9.17
2018-06-19T03:14:17.373Z,9.20
2018-06-19T03:16:46.438Z,8.63
2018-06-19T03:19:15.455Z,8.50
2018-06-19T03:21:44.195Z,9.10
2018-06-19T03:24:13.485Z,10.00
2018-06-19T03:26:42.534Z,9.33
2018-06-19T03:29:11.275Z,8.60
2018-06-19T03:31:39.918Z,9.27
2018-06-19T03:34:08.637Z,8.30
2018-06-19T03:36:37.891Z,11.23
2018-06-19T03:39:09.269Z,9.43
2018-06-19T03:41:38.316Z,9.27
2018-06-19T03:44:07.439Z,10.03
2018-06-19T03:46:36.273Z,9.37
2018-06-19T03:49:05.341Z,8.20
2018-06-19T03:51:34.251Z,8.60
2018-06-19T03:54:03.237Z,9.10
2018-06-19T03:56:32.340Z,9.03
2018-06-19T03:59:01.256Z,8.20
2018-06-19T04:01:30.213Z,9.03
2018-06-19T04:03:59.032Z,9.33
2018-06-19T04:06:31.295Z,8.70
2018-06-19T04:09:02.684Z,8.70
2018-06-19T04:11:31.575Z,8.77
2018-06-19T04:14:00.503Z,10.50
2018-06-19T04:16:28.891Z,8.93
2018-06-19T04:18:57.532Z,8.73
2018-06-19T04:21:26.245Z,8.67
2018-06-19T04:23:55.125Z,8.50
2018-06-19T04:26:24.097Z,8.93
2018-06-19T04:28:52.691Z,8.57
2018-06-19T04:31:21.433Z,8.30
2018-06-19T04:33:50.234Z,8.30
2018-06-19T04:36:18.943Z,8.10
2018-06-19T04:38:47.705Z,8.40
2018-06-19T04:41:16.649Z,8.03
2018-06-19T04:43:45.321Z,7.90
2018-06-19T04:46:14.115Z,8.30
2018-06-19T04:48:43.102Z,8.20
2018-06-19T04:51:12.129Z,7.80
2018-06-19T04:53:41.068Z,9.30
2018-06-19T04:56:09.767Z,8.27
2018-06-19T04:58:38.463Z,7.77
2018-06-19T05:01:07.271Z,8.50
2018-06-19T05:03:35.831Z,8.70
2018-06-19T05:06:04.517Z,7.47
2018-06-19T05:08:33.414Z,8.03
2018-06-19T05:11:02.167Z,7.20
2018-06-19T05:13:30.379Z,8.70
2018-06-19T05:15:59.101Z,7.70
2018-06-19T05:18:28.244Z,7.80
2018-06-19T05:20:57.071Z,7.57
2018-06-19T05:23:25.818Z,7.40
2018-06-19T05:25:54.751Z,8.00
2018-06-19T05:28:23.575Z,8.13
2018-06-19T05:30:52.233Z,7.73
2018-06-19T05:33:21.125Z,7.20
2018-06-19T05:35:49.823Z,7.37
2018-06-19T05:38:18.552Z,7.40
2018-06-19T05:40:47.121Z,6.93
2018-06-19T05:43:15.700Z,6.77
2018-06-19T05:45:44.809Z,6.37
2018-06-19T05:48:13.231Z,7.00
2018-06-19T05:50:41.913Z,5.80
2018-06-19T05:53:10.461Z,6.00
2018-06-19T05:55:39.255Z,5.67
2018-06-19T05:58:07.531Z,5.47
2018-06-19T06:00:36.429Z,5.80
2018-06-19T06:03:05.063Z,5.00
2018-06-19T06:05:33.998Z,5.67
2018-06-19T06:08:02.579Z,4.80
2018-06-19T06:10:31.369Z,4.70
2018-06-19T06:13:00.047Z,4.63
2018-06-19T06:15:28.982Z,4.60
2018-06-19T06:17:57.676Z,5.03
2018-06-19T06:20:26.502Z,4.20
2018-06-19T06:22:55.239Z,5.20
2018-06-19T06:25:24.023Z,5.07
2018-06-19T06:27:52.603Z,4.87
2018-06-19T06:30:21.654Z,4.20
2018-06-19T06:32:50.280Z,6.00
2018-06-19T06:35:18.868Z,4.80
2018-06-19T06:37:47.856Z,5.17
2018-06-19T06:40:16.107Z,4.90
2018-06-19T06:42:45.072Z,5.23
2018-06-19T06:45:13.994Z,6.00
2018-06-19T06:47:42.693Z,5.60
2018-06-19T06:50:12.008Z,4.53
2018-06-19T06:52:40.575Z,5.40
2018-06-19T06:55:09.420Z,5.67
2018-06-19T06:57:38.214Z,5.80
2018-06-19T07:00:07.258Z,6.07
2018-06-19T07:02:35.967Z,4.80
2018-06-19T07:05:04.453Z,4.57
2018-06-19T07:07:33.091Z,5.30
2018-06-19T07:10:01.728Z,4.40
2018-06-19T07:12:30.472Z,5.30
2018-06-19T07:14:59.099Z,5.17
2018-06-19T07:17:27.779Z,4.80
2018-06-19T07:19:55.948Z,4.87
2018-06-19T07:22:24.855Z,5.30
2018-06-19T07:24:53.749Z,5.13
2018-06-19T07:27:22.350Z,6.13
2018-06-19T07:29:51.016Z,5.20
2018-06-19T07:32:19.572Z,6.10
2018-06-19T07:34:48.399Z,5.70
2018-06-19T07:37:17.082Z,6.63
2018-06-19T07:39:45.737Z,6.10
2018-06-19T07:42:14.804Z,5.50
2018-06-19T07:44:43.457Z,5.30
2018-06-19T07:47:11.804Z,6.60
2018-06-19T07:49:41.182Z,5.50
2018-06-19T07:52:09.684Z,5.80
2018-06-19T07:54:38.366Z,5.80
2018-06-19T07:57:07.104Z,6.50
2018-06-19T07:59:35.657Z,5.80
2018-06-19T08:02:04.267Z,6.70
2018-06-19T08:04:33.134Z,6.37
2018-06-19T08:07:06.146Z,6.53
2018-06-19T08:09:34.947Z,5.30
2018-06-19T08:12:03.973Z,6.20
2018-06-19T08:14:32.986Z,6.30
2018-06-19T08:17:02.039Z,7.27
2018-06-19T08:19:30.820Z,6.30
2018-06-19T08:21:59.376Z,8.03
2018-06-19T08:24:28.456Z,8.43
2018-06-19T08:26:57.099Z,6.87
2018-06-19T08:29:25.904Z,7.43
2018-06-19T08:31:54.507Z,7.23
2018-06-19T08:34:23.986Z,7.37
2018-06-19T08:36:53.184Z,6.77
2018-06-19T08:39:22.040Z,6.50
2018-06-19T08:41:51.023Z,7.10
2018-06-19T08:44:19.611Z,6.57
2018-06-19T08:46:48.240Z,7.67
2018-06-19T08:49:17.143Z,7.07
2018-06-19T08:51:45.919Z,7.60
2018-06-19T08:54:14.419Z,7.03
2018-06-19T08:56:43.368Z,7.77
2018-06-19T08:59:11.883Z,7.73
2018-06-19T09:01:40.497Z,6.97
2018-06-19T09:04:09.379Z,6.80
2018-06-19T09:06:38.297Z,7.20
2018-06-19T09:09:09.434Z,6.67
2018-06-19T09:11:38.180Z,7.60
2018-06-19T09:14:07.193Z,7.67
2018-06-19T09:16:36.280Z,7.03
2018-06-19T09:19:06.076Z,8.27
2018-06-19T09:21:34.792Z,7.73
2018-06-19T09:24:03.802Z,7.50
2018-06-19T09:26:32.816Z,6.90
2018-06-19T09:29:01.775Z,6.83
2018-06-19T09:31:31.075Z,7.00
2018-06-19T09:33:59.994Z,6.57
2018-06-19T09:36:28.586Z,7.00
2018-06-19T09:38:58.328Z,6.20
2018-06-19T09:41:27.068Z,6.43
2018-06-19T09:43:56.059Z,6.70
2018-06-19T09:46:24.901Z,6.00
2018-06-19T09:48:54.034Z,6.50
2018-06-19T09:51:22.949Z,6.80
2018-06-19T09:53:51.748Z,7.43
2018-06-19T09:56:20.712Z,6.30
2018-06-19T09:58:49.762Z,6.07
2018-06-19T10:01:18.347Z,6.23
2018-06-19T10:03:47.079Z,5.83
2018-06-19T10:06:16.297Z,5.87
2018-06-19T10:08:45.295Z,6.13
2018-06-19T10:11:14.260Z,5.87
2018-06-19T10:13:43.162Z,4.73
2018-06-19T10:16:12.049Z,5.80
2018-06-19T10:18:40.986Z,5.20
2018-06-19T10:21:09.776Z,5.20
2018-06-19T10:23:38.849Z,5.63
2018-06-19T10:26:07.704Z,5.80
2018-06-19T10:28:36.699Z,4.83
2018-06-19T10:31:05.121Z,6.07
2018-06-19T10:33:34.529Z,4.93
2018-06-19T10:36:04.157Z,5.40
2018-06-19T10:38:33.064Z,5.93
2018-06-19T10:41:01.317Z,5.57
2018-06-19T10:43:30.350Z,6.43
2018-06-19T10:45:59.178Z,5.67
2018-06-19T10:48:27.929Z,5.80
2018-06-19T10:50:56.576Z,4.90
2018-06-19T10:53:25.516Z,5.50
2018-06-19T10:55:54.362Z,4.80
2018-06-19T10:58:23.116Z,4.87
2018-06-19T11:00:51.799Z,5.17
2018-06-19T11:03:20.496Z,5.97
2018-06-19T11:05:49.324Z,4.80
2018-06-19T11:08:18.204Z,5.00
2018-06-19T11:10:46.860Z,5.30
2018-06-19T11:13:15.541Z,6.03
2018-06-19T11:15:44.196Z,5.60
2018-06-19T11:18:12.640Z,5.13
2018-06-19T11:20:41.570Z,5.40
2018-06-19T11:23:10.412Z,5.73
2018-06-19T11:25:39.497Z,5.40
2018-06-19T11:28:08.062Z,4.80
2018-06-19T11:30:36.698Z,5.10
2018-06-19T11:33:05.435Z,5.27
2018-06-19T11:35:34.064Z,4.73
2018-06-19T11:38:02.828Z,5.03
2018-06-19T11:40:31.567Z,4.93
2018-06-19T11:43:00.458Z,5.20
2018-06-19T11:45:29.113Z,5.47
2018-06-19T11:47:57.867Z,5.40
2018-06-19T11:50:26.201Z,4.70
2018-06-19T11:52:55.104Z,4.57
2018-06-19T11:55:24.175Z,4.03
2018-06-19T11:57:52.781Z,4.40
2018-06-19T12:00:21.718Z,6.67
2018-06-19T12:02:50.462Z,5.00
2018-06-19T12:05:19.360Z,5.27
2018-06-19T12:07:48.550Z,4.90
2018-06-19T12:10:17.339Z,4.13
2018-06-19T12:12:46.026Z,5.00
2018-06-19T12:15:14.924Z,4.60
2018-06-19T12:17:43.839Z,4.07
2018-06-19T12:20:12.269Z,5.53
2018-06-19T12:22:41.373Z,4.83
2018-06-19T12:25:10.999Z,4.67
2018-06-19T12:27:39.817Z,4.50
2018-06-19T12:30:08.312Z,4.70
2018-06-19T12:32:37.841Z,5.70
2018-06-19T12:35:06.974Z,4.27
2018-06-19T12:37:35.601Z,4.80
2018-06-19T12:40:04.013Z,4.73
2018-06-19T12:42:33.312Z,4.37
2018-06-19T12:45:02.320Z,4.70
2018-06-19T12:47:32.303Z,6.30
2018-06-19T12:50:40.445Z,4.43
2018-06-19T12:53:20.742Z,5.80
2018-06-19T12:56:01.883Z,4.70
2018-06-19T12:58:31.341Z,5.10
2018-06-19T13:00:59.822Z,5.30
2018-06-19T13:03:39.700Z,4.53
2018-06-19T13:06:19.586Z,5.27
2018-06-19T13:08:48.615Z,4.67
2018-06-19T13:11:17.499Z,4.60
2018-06-19T13:13:57.644Z,4.93
2018-06-19T13:16:37.702Z,4.63
2018-06-19T13:19:17.819Z,4.40
2018-06-19T13:21:46.637Z,4.87
2018-06-19T13:24:15.676Z,4.77
2018-06-19T13:26:44.386Z,4.93
2018-06-19T13:29:53.903Z,5.80
2018-06-19T13:32:22.475Z,5.43
2018-06-19T13:34:51.296Z,4.77
2018-06-19T13:37:19.927Z,4.70
2018-06-19T13:40:57.567Z,4.10
2018-06-19T13:43:37.505Z,4.20
2018-06-19T13:46:06.395Z,3.40
2018-06-19T13:48:35.203Z,3.70
2018-06-19T13:51:03.651Z,4.60
2018-06-19T13:53:32.390Z,3.80
2018-06-19T13:56:12.277Z,3.40
2018-06-19T13:58:41.875Z,4.33
2018-06-19T14:01:10.497Z,3.20
2018-06-19T14:03:39.185Z,3.63
2018-06-19T14:06:07.968Z,3.30
2018-06-19T14:08:48.994Z,2.70
2018-06-19T14:11:31.459Z,3.03
2018-06-19T14:14:02.237Z,2.90
2018-06-19T14:16:30.947Z,3.10
2018-06-19T14:21:54.870Z,3.80
2018-06-19T14:24:27.639Z,3.53
2018-06-19T14:26:56.618Z,3.10
2018-06-19T14:29:29.607Z,3.30
2018-06-19T14:31:58.306Z,2.80
2018-06-19T14:34:30.979Z,3.50
2018-06-19T14:37:05.496Z,2.63
2018-06-19T14:39:38.349Z,2.97
2018-06-19T14:42:10.719Z,4.13
2018-06-19T14:44:41.723Z,3.40
2018-06-19T14:47:11.954Z,3.80
2018-06-19T14:49:43.145Z,3.10
2018-06-19T14:52:16.108Z,3.30
2018-06-19T14:54:47.388Z,3.07
2018-06-19T14:57:20.719Z,3.37
2018-06-19T14:59:53.211Z,2.70
2018-06-19T15:02:27.043Z,3.30
2018-06-19T15:04:55.820Z,3.27
2018-06-19T15:07:24.536Z,3.80
2018-06-19T15:09:53.642Z,2.73
2018-06-19T15:12:23.305Z,2.63
2018-06-19T15:14:51.990Z,3.17
2018-06-19T15:17:20.688Z,3.17
2018-06-19T15:19:49.526Z,3.17
2018-06-19T15:22:18.610Z,3.10
2018-06-19T15:24:47.531Z,3.13
2018-06-19T15:27:16.358Z,3.30
2018-06-19T15:29:45.671Z,3.13
2018-06-19T15:32:13.980Z,3.00
2018-06-19T15:34:42.710Z,2.90
2018-06-19T15:37:11.867Z,3.00
2018-06-19T15:39:40.777Z,3.03
2018-06-19T15:42:10.911Z,3.30
2018-06-19T15:44:39.599Z,3.70
2018-06-19T15:47:08.324Z,2.90
2018-06-19T15:49:37.078Z,2.83
2018-06-19T15:52:05.653Z,3.87
2018-06-19T15:54:34.362Z,3.10
2018-06-19T15:57:04.559Z,3.23
2018-06-19T15:59:33.318Z,3.27
2018-06-19T16:02:01.915Z,3.10
2018-06-19T16:04:30.789Z,3.33
2018-06-19T16:06:59.547Z,3.43
2018-06-19T16:09:28.358Z,3.50
2018-06-19T16:11:57.119Z,3.50
2018-06-19T16:14:25.884Z,2.90
2018-06-19T16:16:54.711Z,2.80
2018-06-19T16:19:23.503Z,2.97
2018-06-19T16:21:52.262Z,2.83
2018-06-19T16:24:21.210Z,3.60
2018-06-19T16:26:49.956Z,2.80
2018-06-19T16:29:18.576Z,3.20
2018-06-19T16:31:47.421Z,3.70
2018-06-19T16:34:16.305Z,2.90
2018-06-19T16:36:45.729Z,2.80
2018-06-19T16:39:14.777Z,3.53
2018-06-19T16:41:43.561Z,2.93
2018-06-19T16:44:12.057Z,3.27
2018-06-19T16:46:40.817Z,2.70
2018-06-19T16:49:10.165Z,2.87
2018-06-19T16:51:39.348Z,2.40
2018-06-19T16:54:07.715Z,2.50
2018-06-19T16:56:36.695Z,3.07
2018-06-19T16:59:06.425Z,3.13
2018-06-19T17:01:35.929Z,2.97
2018-06-19T17:04:06.970Z,2.93
2018-06-19T17:06:36.553Z,3.10
2018-06-19T17:09:07.797Z,2.90
2018-06-19T17:11:37.342Z,3.00
2018-06-19T17:14:08.237Z,3.50
2018-06-19T17:16:37.287Z,3.33
2018-06-19T17:19:06.068Z,3.40
2018-06-19T17:21:37.500Z,3.93
2018-06-19T17:24:06.278Z,6.33
2018-06-19T17:26:35.393Z,3.33
2018-06-19T17:29:04.830Z,3.13
2018-06-19T17:31:34.251Z,2.30
2018-06-19T17:34:04.768Z,2.90
2018-06-19T17:36:35.154Z,2.47
2018-06-19T17:39:08.187Z,3.00
2018-06-19T17:41:38.746Z,2.80
2018-06-19T17:44:08.614Z,2.50
2018-06-19T17:46:38.256Z,2.57
2018-06-19T17:49:07.059Z,2.87
2018-06-19T17:51:36.216Z,2.63
2018-06-19T17:54:05.438Z,2.63
2018-06-19T17:56:34.502Z,2.90
2018-06-19T17:59:03.222Z,3.03
2018-06-19T18:01:33.620Z,2.90
2018-06-19T18:04:03.160Z,3.30
2018-06-19T18:06:32.301Z,2.73
2018-06-19T18:09:01.868Z,2.80
2018-06-19T18:11:31.175Z,2.77
2018-06-19T18:14:00.940Z,2.70
2018-06-19T18:16:30.928Z,5.00
2018-06-19T18:19:00.149Z,3.53
2018-06-19T18:21:30.771Z,3.50
2018-06-19T18:23:59.843Z,2.83
2018-06-19T18:26:30.467Z,3.10
2018-06-19T18:29:00.060Z,2.67
2018-06-19T18:31:29.811Z,2.70
2018-06-19T18:33:58.941Z,3.23
2018-06-19T18:36:28.229Z,2.73
2018-06-19T18:38:58.826Z,2.63
2018-06-19T18:41:28.515Z,3.03
2018-06-19T18:49:46.168Z,3.37
2018-06-19T18:52:18.878Z,3.10
2018-06-19T18:54:50.315Z,3.10
2018-06-19T18:57:19.392Z,2.90
2018-06-19T18:59:49.001Z,3.47
2018-06-19T19:02:21.298Z,3.20
2018-06-19T19:04:53.344Z,3.30
2018-06-19T19:07:22.624Z,3.40
2018-06-19T19:09:56.697Z,3.93
2018-06-19T19:18:11.620Z,3.33
2018-06-19T19:20:45.565Z,3.70
2018-06-19T19:23:17.856Z,4.87
2018-06-19T19:31:26.726Z,4.10
2018-06-19T19:33:56.164Z,4.03
2018-06-19T19:36:34.348Z,3.30
2018-06-19T19:39:09.441Z,4.23
2018-06-19T19:41:39.060Z,4.10
2018-06-19T19:44:08.274Z,3.60
2018-06-19T19:46:42.644Z,3.20
2018-06-19T19:49:15.404Z,3.33
2018-06-19T19:51:44.586Z,4.00
2018-06-19T19:54:14.031Z,4.47
2018-06-19T19:57:50.032Z,4.40
2018-06-19T20:00:25.375Z,4.40
2018-06-19T20:02:55.212Z,4.30
2018-06-19T20:05:24.300Z,3.90
2018-06-19T20:07:53.832Z,4.33
2018-06-19T20:10:24.271Z,4.43
2018-06-19T20:15:46.175Z,4.50
2018-06-19T20:18:16.355Z,4.57
2018-06-19T20:20:46.016Z,4.10
2018-06-19T20:23:14.860Z,4.10
2018-06-19T20:25:45.103Z,4.83
2018-06-19T20:28:14.651Z,4.37
2018-06-19T20:30:43.293Z,4.80
2018-06-19T20:33:12.780Z,5.10
2018-06-19T20:35:42.510Z,4.27
2018-06-19T20:38:11.619Z,5.00
2018-06-19T20:40:40.658Z,4.87
2018-06-19T20:43:10.000Z,4.63
2018-06-19T20:45:38.858Z,4.83
2018-06-19T20:48:07.709Z,4.80
2018-06-19T20:50:37.160Z,4.90
2018-06-19T20:53:07.064Z,4.53
2018-06-19T20:55:36.071Z,5.03
2018-06-19T20:58:04.966Z,5.27
2018-06-19T21:00:33.578Z,4.50
2018-06-19T21:03:04.432Z,4.70
2018-06-19T21:05:33.298Z,5.10
2018-06-19T21:08:01.955Z,5.17
2018-06-19T21:10:30.516Z,5.67
2018-06-19T21:12:59.066Z,5.47
2018-06-19T21:15:28.121Z,4.77
2018-06-19T21:17:57.238Z,5.10
2018-06-19T21:20:26.053Z,5.50
2018-06-19T21:22:54.872Z,6.27
2018-06-19T21:25:23.859Z,5.00
2018-06-19T21:27:52.579Z,6.03
2018-06-19T21:30:21.472Z,5.20
2018-06-19T21:32:50.250Z,5.73
2018-06-19T21:35:18.896Z,6.00
2018-06-19T21:37:51.366Z,6.00
2018-06-19T21:40:20.054Z,5.77
2018-06-19T21:42:48.649Z,5.97
2018-06-19T21:45:17.618Z,5.43
2018-06-19T21:47:46.653Z,5.67
2018-06-19T21:50:15.365Z,5.77
2018-06-19T21:52:43.992Z,5.03
2018-06-19T21:55:13.686Z,5.70
2018-06-19T21:57:42.283Z,5.80
2018-06-19T22:00:10.977Z,6.93
2018-06-19T22:02:39.731Z,5.63
2018-06-19T22:05:08.443Z,5.43
2018-06-19T22:07:37.231Z,5.23
2018-06-19T22:10:06.150Z,6.53
2018-06-19T22:12:34.965Z,6.60
2018-06-19T22:15:03.824Z,6.07
2018-06-19T22:17:32.526Z,5.63
2018-06-19T22:20:01.297Z,6.70
2018-06-19T22:22:29.860Z,6.40
2018-06-19T22:24:58.418Z,6.30
2018-06-19T22:27:27.364Z,5.90
2018-06-19T22:29:56.240Z,5.90
2018-06-19T22:32:24.866Z,6.60
2018-06-19T22:34:53.750Z,5.70
2018-06-19T22:37:22.465Z,6.83
2018-06-19T22:39:51.632Z,6.27
2018-06-19T22:42:20.300Z,5.73
2018-06-19T22:44:49.118Z,6.23
2018-06-19T22:47:17.672Z,6.60
2018-06-19T22:49:46.218Z,7.40
2018-06-19T22:52:15.082Z,6.50
2018-06-19T22:54:43.958Z,6.53
2018-06-19T22:57:12.624Z,7.00
2018-06-19T22:59:41.470Z,7.17
2018-06-19T23:02:10.188Z,7.63
2018-06-19T23:04:38.896Z,7.20
2018-06-19T23:07:07.656Z,7.30
2018-06-19T23:09:36.462Z,7.23
2018-06-19T23:12:05.220Z,6.23
2018-06-19T23:14:34.058Z,5.90
2018-06-19T23:17:02.799Z,5.67
2018-06-19T23:19:31.568Z,5.80
2018-06-19T23:22:00.213Z,5.60
2018-06-19T23:24:29.051Z,6.20
2018-06-19T23:26:57.280Z,6.70
2018-06-19T23:29:25.734Z,5.33
2018-06-19T23:31:54.689Z,8.60
2018-06-19T23:34:23.354Z,7.60
2018-06-19T23:36:52.128Z,7.53
2018-06-19T23:39:21.117Z,7.03
2018-06-19T23:41:49.664Z,7.37
2018-06-19T23:44:18.595Z,7.50
2018-06-19T23:46:47.390Z,7.40
2018-06-19T23:49:16.355Z,8.07
2018-06-19T23:51:44.681Z,7.73
2018-06-19T23:54:13.309Z,7.47
2018-06-19T23:56:42.142Z,6.93
2018-06-19T23:59:11.048Z,7.47
